Time;durP1;ratioP1;P1;durP2;ratioP2;P2;SDS_P1;SDS_P2;PMS_P1;PMS_P2;Temp;Humidity;BMP_temperature;BMP_pressure;BME280_temperature;BME280_humidity;BME280_pressure;Samples;Min_cycle;Max_cycle;Signal;HPM_P1;HPM_P2
2021/03/28 00:00:17;;;;;;;59.27;36.28;;;;;;;4.79;59.17;100207.38;1725600;82;21114;-40
2021/03/28 00:02:58;;;;;;;69.67;38.73;;;;;;;4.73;59.24;100207.80;1713751;82;21186;-40
2021/03/28 00:05:33;;;;;;;46.30;28.20;;;;;;;4.69;59.34;100204.13;1715299;81;21249;-40
2021/03/28 00:08:23;;;;;;;62.73;38.28;;;;;;;4.67;59.33;100199.05;1773078;79;21159;-40
2021/03/28 00:10:55;;;;;;;65.40;37.42;;;;;;;4.64;59.33;100205.03;1798035;78;21004;-41
2021/03/28 00:13:27;;;;;;;61.65;38.00;;;;;;;4.59;59.38;100199.75;1772717;79;21115;-40
2021/03/28 00:16:04;;;;;;;65.72;39.50;;;;;;;4.58;59.34;100198.16;1776752;77;21597;-40
2021/03/28 00:18:57;;;;;;;66.07;37.98;;;;;;;4.56;59.33;100200.33;1789471;79;20976;-40
2021/03/28 00:21:34;;;;;;;51.68;34.20;;;;;;;4.53;59.50;100207.66;1779583;79;21039;-40
2021/03/28 00:24:15;;;;;;;67.25;40.75;;;;;;;4.48;60.17;100215.01;1773706;78;21606;-40
2021/03/28 00:27:06;;;;;;;61.53;36.23;;;;;;;4.42;60.24;100206.25;1782726;79;21402;-40
2021/03/28 00:29:56;;;;;;;67.25;39.00;;;;;;;4.37;60.42;100213.86;1804609;79;21182;-40
2021/03/28 00:33:04;;;;;;;64.10;38.73;;;;;;;4.31;60.39;100210.20;1801879;79;22286;-40
2021/03/28 00:35:52;;;;;;;65.10;39.05;;;;;;;4.26;60.25;100211.67;1777362;79;21190;-40
2021/03/28 00:38:29;;;;;;;60.92;37.03;;;;;;;4.22;60.24;100206.63;1712937;82;21158;-40
2021/03/28 00:41:19;;;;;;;58.10;36.80;;;;;;;4.19;60.16;100207.23;1720113;82;21146;-40
2021/03/28 00:44:16;;;;;;;61.15;37.53;;;;;;;4.17;60.08;100206.72;1738455;81;21181;-40
2021/03/28 00:46:57;;;;;;;65.72;38.98;;;;;;;4.14;60.06;100208.12;1743676;81;21215;-40
2021/03/28 00:49:39;;;;;;;63.98;39.40;;;;;;;4.11;60.24;100221.34;1764472;79;21123;-40
2021/03/28 00:52:21;;;;;;;67.53;38.67;;;;;;;4.07;60.37;100214.94;1757713;81;21068;-40
2021/03/28 00:55:03;;;;;;;67.80;38.73;;;;;;;4.04;60.51;100218.23;1739452;79;21202;-40
2021/03/28 00:57:39;;;;;;;62.48;37.45;;;;;;;4.02;60.53;100217.74;1731769;82;21139;-40
2021/03/28 01:00:40;;;;;;;62.05;37.75;;;;;;;4.00;60.47;100211.86;1744515;81;21203;-40
2021/03/28 01:03:32;;;;;;;63.83;37.83;;;;;;;4.00;60.31;100207.84;1753198;79;21157;-40
2021/03/28 01:05:57;;;;;;;65.28;39.23;;;;;;;3.96;60.33;100213.01;1757416;81;21468;-40
2021/03/28 01:08:37;;;;;;;67.87;40.55;;;;;;;3.94;60.47;100215.97;1738176;81;21132;-40
2021/03/28 01:11:36;;;;;;;66.10;40.00;;;;;;;3.92;60.42;100216.80;1726584;82;21034;-40
2021/03/28 01:14:40;;;;;;;61.92;39.18;;;;;;;3.89;60.72;100212.03;1742613;81;21169;-40
2021/03/28 01:17:30;;;;;;;66.77;39.60;;;;;;;3.87;60.83;100218.23;1739090;81;22432;-40
2021/03/28 01:20:16;;;;;;;64.55;41.00;;;;;;;3.87;60.83;100221.48;1721075;81;21594;-40
2021/03/28 01:23:09;;;;;;;67.70;42.93;;;;;;;3.92;60.82;100221.39;1730037;81;21142;-40
2021/03/28 01:26:07;;;;;;;78.22;43.10;;;;;;;3.94;61.03;100214.63;1726420;82;21144;-40
2021/03/28 01:28:57;;;;;;;67.58;42.13;;;;;;;3.97;60.94;100219.94;1772594;80;21343;-40
2021/03/28 01:31:50;;;;;;;75.15;44.65;;;;;;;3.99;60.84;100214.29;1782404;78;21102;-40
2021/03/28 01:34:26;;;;;;;72.95;44.00;;;;;;;3.97;60.76;100209.20;1779923;79;21164;-40
2021/03/28 01:37:14;;;;;;;74.55;44.35;;;;;;;3.98;60.85;100211.34;1772728;81;21158;-40
2021/03/28 01:39:51;;;;;;;76.85;43.45;;;;;;;4.00;60.78;100213.20;1780516;78;21181;-40
2021/03/28 01:42:34;;;;;;;68.28;43.48;;;;;;;3.98;60.69;100210.01;1772524;81;21471;-40
2021/03/28 01:45:55;;;;;;;71.90;42.17;;;;;;;3.96;60.53;100207.64;1775300;79;21193;-40
2021/03/28 01:48:34;;;;;;;70.03;43.65;;;;;;;3.96;60.53;100206.84;1795285;78;21099;-40
2021/03/28 01:51:28;;;;;;;69.23;41.43;;;;;;;3.88;60.63;100210.98;1783632;79;21142;-40
2021/03/28 01:54:29;;;;;;;67.27;41.65;;;;;;;3.84;60.74;100212.66;1784243;79;21163;-40
2021/03/28 01:57:14;;;;;;;70.32;41.92;;;;;;;3.82;61.18;100212.97;1789903;79;21378;-40
2021/03/28 02:00:15;;;;;;;76.97;43.23;;;;;;;3.78;61.17;100209.27;1750054;79;21115;-40
2021/03/28 02:03:19;;;;;;;70.75;42.33;;;;;;;3.74;61.13;100214.17;1791129;79;21103;-40
2021/03/28 02:06:04;;;;;;;68.28;41.53;;;;;;;3.69;61.18;100213.70;1787198;79;21059;-40
2021/03/28 02:08:53;;;;;;;68.95;42.08;;;;;;;3.65;61.27;100220.75;1767605;79;21174;-40
2021/03/28 02:11:58;;;;;;;66.90;40.38;;;;;;;3.65;61.24;100219.95;1773509;79;21568;-40
2021/03/28 02:15:08;;;;;;;63.90;39.92;;;;;;;3.65;61.28;100215.38;1784324;79;20977;-40
2021/03/28 02:17:50;;;;;;;;;;;;;;;3.73;61.23;100212.03;1788361;79;20966;-40
2021/03/28 02:20:43;;;;;;;71.37;40.28;;;;;;;3.76;61.22;100210.12;1795314;78;20304;-40
2021/03/28 02:23:47;;;;;;;66.50;40.30;;;;;;;3.69;61.43;100211.02;1787318;79;21150;-40
2021/03/28 02:26:36;;;;;;;71.45;40.52;;;;;;;3.74;61.14;100212.28;1776842;79;21192;-40
2021/03/28 02:29:33;;;;;;;64.62;39.13;;;;;;;3.74;61.04;100212.83;1777820;78;21461;-40
2021/03/28 02:32:43;;;;;;;62.20;38.42;;;;;;;3.78;60.97;100203.90;1832362;78;22766;-39
2021/03/28 02:35:53;;;;;;;67.50;39.75;;;;;;;3.75;60.85;100212.55;1816161;79;21019;-39
2021/03/28 02:38:56;;;;;;;65.78;38.75;;;;;;;3.74;60.75;100209.60;1718262;82;21431;-39
2021/03/28 02:41:48;;;;;;;66.12;40.28;;;;;;;3.73;60.91;100205.86;1756671;78;21031;-39
2021/03/28 02:44:36;;;;;;;63.33;38.33;;;;;;;3.72;60.82;100206.98;1807363;79;21039;-39
2021/03/28 02:47:37;;;;;;;65.67;39.63;;;;;;;3.69;60.67;100211.02;1806193;77;21032;-38
2021/03/28 02:50:32;;;;;;;73.05;41.73;;;;;;;3.68;60.73;100208.66;1789366;77;20980;-39
2021/03/28 02:53:17;;;;;;;66.10;39.42;;;;;;;3.65;60.89;100203.31;1792442;79;21231;-39
2021/03/28 02:56:32;;;;;;;65.78;38.60;;;;;;;3.65;60.77;100197.16;1776214;78;21063;-39
2021/03/28 02:59:35;;;;;;;66.25;38.98;;;;;;;3.64;60.70;100195.02;1790113;79;21027;-39
2021/03/28 03:02:14;;;;;;;64.40;37.38;;;;;;;3.64;60.88;100202.26;1793720;79;21119;-39
2021/03/28 03:05:03;;;;;;;65.67;38.40;;;;;;;3.64;60.77;100200.38;1800782;78;21145;-39
2021/03/28 03:08:08;;;;;;;67.10;38.60;;;;;;;3.65;60.76;100201.98;1804335;79;21365;-39
2021/03/28 03:10:57;;;;;;;65.67;37.60;;;;;;;3.64;60.71;100199.03;1795418;79;21138;-39
2021/03/28 03:14:07;;;;;;;66.23;39.10;;;;;;;3.64;60.77;100199.03;1815093;79;21153;-39
2021/03/28 03:17:31;;;;;;;63.38;37.08;;;;;;;3.65;61.10;100207.34;1815240;79;21271;-39
2021/03/28 03:20:44;;;;;;;65.10;39.92;;;;;;;3.65;61.07;100206.54;1816022;79;21095;-39
2021/03/28 03:23:34;;;;;;;63.60;36.98;;;;;;;3.66;61.03;100200.09;1794629;79;21278;-39
2021/03/28 03:28:56;;;;;;;61.35;35.55;;;;;;;3.71;60.92;100204.03;1814258;77;22784;-39
2021/03/28 03:32:03;;;;;;;62.20;36.95;;;;;;;3.64;61.05;100209.77;1799806;78;21027;-39
2021/03/28 03:34:54;;;;;;;67.55;37.90;;;;;;;3.69;60.86;100211.02;1783984;80;21366;-39
2021/03/28 03:37:36;;;;;;;61.33;36.38;;;;;;;3.71;60.66;100206.17;1807584;78;20980;-38
2021/03/28 03:40:33;;;;;;;65.75;37.03;;;;;;;3.70;60.53;100209.94;1793151;78;21043;-39
2021/03/28 03:43:22;;;;;;;62.70;37.10;;;;;;;3.70;60.38;100210.48;1781829;78;21637;-39
2021/03/28 03:46:07;;;;;;;65.50;36.55;;;;;;;3.67;60.31;100215.91;1785840;79;21074;-39
2021/03/28 03:49:14;;;;;;;67.40;37.35;;;;;;;3.66;60.41;100208.94;1802586;79;21366;-39
2021/03/28 03:52:09;;;;;;;55.95;33.63;;;;;;;3.65;60.40;100210.02;1800514;77;20977;-39
2021/03/28 03:54:46;;;;;;;61.00;35.45;;;;;;;3.63;60.51;100206.82;1798372;78;21015;-39
2021/03/28 03:57:25;;;;;;;55.52;35.05;;;;;;;3.62;60.54;100208.48;1792341;77;21142;-39
2021/03/28 04:00:14;;;;;;;61.28;34.92;;;;;;;3.64;60.48;100211.64;1797848;77;21173;-39
2021/03/28 04:03:13;;;;;;;53.78;34.38;;;;;;;3.67;60.42;100205.17;1792567;77;22407;-39
2021/03/28 04:06:06;;;;;;;62.87;36.33;;;;;;;3.71;60.38;100206.17;1788100;78;21609;-39
2021/03/28 04:09:00;;;;;;;59.23;34.08;;;;;;;3.74;60.29;100202.90;1792655;77;21848;-39
2021/03/28 04:11:56;;;;;;;62.15;35.98;;;;;;;3.75;60.23;100197.79;1806131;78;21136;-39
2021/03/28 04:15:13;;;;;;;59.90;34.65;;;;;;;3.80;60.26;100204.95;1801860;77;21110;-39
2021/03/28 04:18:21;;;;;;;58.75;35.28;;;;;;;3.84;60.28;100213.46;1801538;78;21204;-39
2021/03/28 04:21:20;;;;;;;56.23;35.23;;;;;;;3.86;60.27;100215.31;1791221;77;21150;-39
2021/03/28 04:24:44;;;;;;;55.08;32.20;;;;;;;3.89;60.28;100217.41;1805315;77;21059;-39
2021/03/28 04:27:52;;;;;;;52.20;31.02;;;;;;;3.92;60.20;100224.84;1782412;78;21194;-39
2021/03/28 04:30:55;;;;;;;48.33;30.45;;;;;;;3.93;60.11;100223.77;1802999;79;21162;-39
2021/03/28 04:34:00;;;;;;;50.33;30.48;;;;;;;3.99;60.00;100231.19;1767432;79;23512;-39
2021/03/28 04:36:56;;;;;;;51.28;31.55;;;;;;;4.04;59.77;100227.62;1771618;79;21577;-39
2021/03/28 04:39:39;;;;;;;57.43;31.45;;;;;;;4.07;59.73;100226.48;1783880;78;21056;-40
2021/03/28 04:42:33;;;;;;;56.33;32.75;;;;;;;4.12;59.57;100236.32;1802635;79;21553;-40
2021/03/28 04:45:25;;;;;;;52.67;31.17;;;;;;;4.15;59.72;100231.73;1803599;79;21147;-40
2021/03/28 04:48:24;;;;;;;52.88;31.30;;;;;;;4.19;59.51;100236.20;1790898;78;21426;-40
2021/03/28 04:51:15;;;;;;;59.15;34.40;;;;;;;4.24;59.44;100235.31;1786069;79;21138;-40
2021/03/28 04:54:29;;;;;;;55.50;33.35;;;;;;;4.26;59.31;100233.15;1785632;78;21190;-40
2021/03/28 04:57:44;;;;;;;55.38;30.85;;;;;;;4.31;59.30;100238.39;1797003;79;21175;-40
2021/03/28 05:00:36;;;;;;;57.10;32.58;;;;;;;4.39;59.04;100237.73;1801544;78;21139;-40
2021/03/28 05:03:40;;;;;;;53.05;32.40;;;;;;;4.49;58.75;100234.06;1801915;79;21386;-40
2021/03/28 05:06:52;;;;;;;46.50;29.72;;;;;;;4.65;58.67;100238.02;1809524;78;24090;-40
2021/03/28 05:10:16;;;;;;;51.20;30.20;;;;;;;4.67;58.32;100236.65;1769931;77;21063;-39
2021/03/28 05:13:12;;;;;;;52.93;30.30;;;;;;;4.77;58.19;100228.39;1784952;78;21371;-39
2021/03/28 05:16:10;;;;;;;45.83;27.62;;;;;;;4.87;58.02;100231.95;1796657;78;21051;-39
2021/03/28 05:19:12;;;;;;;45.83;27.30;;;;;;;4.96;57.74;100228.81;1807152;78;21643;-39
2021/03/28 05:22:26;;;;;;;48.52;28.27;;;;;;;5.07;57.46;100231.54;1743191;80;21013;-39
2021/03/28 05:25:24;;;;;;;44.90;27.20;;;;;;;5.18;57.21;100229.66;1745124;80;20980;-39
2021/03/28 05:28:29;;;;;;;45.73;32.58;;;;;;;5.35;56.87;100226.34;1841200;76;27880;-39
2021/03/28 05:31:31;;;;;;;42.43;26.87;;;;;;;5.74;55.97;100228.94;1784565;79;21024;-39
2021/03/28 05:34:23;;;;;;;46.92;27.75;;;;;;;5.97;55.51;100230.55;1783963;80;21136;-39
2021/03/28 05:37:09;;;;;;;43.83;26.37;;;;;;;5.92;55.80;100229.33;1767344;80;21055;-39
2021/03/28 05:40:09;;;;;;;38.15;25.15;;;;;;;5.95;55.87;100228.73;1767698;80;20949;-39
2021/03/28 05:43:30;;;;;;;44.27;26.45;;;;;;;6.01;55.77;100226.93;1740077;81;28704;-39
2021/03/28 05:46:23;;;;;;;39.92;25.75;;;;;;;6.09;55.82;100232.94;1745278;81;20987;-40
2021/03/28 05:49:35;;;;;;;38.25;25.40;;;;;;;6.20;55.71;100239.38;1744137;81;21199;-40
2021/03/28 05:52:27;;;;;;;43.48;25.40;;;;;;;6.28;55.55;100232.72;1770231;80;21020;-40
2021/03/28 05:55:22;;;;;;;46.63;26.10;;;;;;;6.36;55.38;100233.30;1750179;79;21581;-40
2021/03/28 05:58:17;;;;;;;38.98;24.72;;;;;;;6.47;55.47;100234.63;1729130;80;21192;-40
2021/03/28 06:01:27;;;;;;;43.17;28.10;;;;;;;6.60;55.14;100236.97;1716631;80;21755;-40
2021/03/28 06:04:26;;;;;;;41.88;24.80;;;;;;;6.72;55.17;100233.14;1758732;80;22113;-41
2021/03/28 06:07:48;;;;;;;39.70;24.55;;;;;;;6.85;55.05;100234.12;1671519;82;21178;-40
2021/03/28 06:10:40;;;;;;;39.85;24.45;;;;;;;6.96;55.08;100231.38;1772215;80;21628;-40
2021/03/28 06:13:34;;;;;;;38.73;25.35;;;;;;;7.10;55.26;100229.34;1759031;80;21008;-40
2021/03/28 06:16:31;;;;;;;38.73;25.17;;;;;;;7.26;55.14;100230.45;1730900;81;21138;-40
2021/03/28 06:19:11;;;;;;;43.48;26.10;;;;;;;7.42;55.03;100226.75;1766236;80;23530;-40
2021/03/28 06:22:07;;;;;;;41.28;26.35;;;;;;;7.60;54.89;100231.61;1751343;80;21661;-40
2021/03/28 06:25:18;;;;;;;42.20;26.20;;;;;;;7.75;54.65;100227.84;1755271;79;21159;-40
2021/03/28 06:28:33;;;;;;;48.10;27.52;;;;;;;7.93;54.36;100223.23;1737016;80;21036;-40
2021/03/28 06:31:13;;;;;;;45.03;27.02;;;;;;;8.12;53.38;100225.02;1721949;82;21170;-41
2021/03/28 06:34:37;;;;;;;43.15;26.40;;;;;;;8.27;53.31;100223.16;1738087;81;21374;-40
2021/03/28 06:37:22;;;;;;;39.42;25.80;;;;;;;8.43;52.86;100226.68;1705349;83;21178;-40
2021/03/28 06:40:08;;;;;;;45.05;27.20;;;;;;;8.59;52.65;100222.34;1703199;83;21174;-40
2021/03/28 06:43:09;;;;;;;43.83;26.35;;;;;;;8.77;52.32;100218.98;1724964;83;21206;-40
2021/03/28 06:46:02;;;;;;;47.00;27.15;;;;;;;8.94;51.91;100219.70;1717132;82;21138;-40
2021/03/28 06:49:02;;;;;;;41.63;24.92;;;;;;;9.14;51.74;100211.38;1725766;83;21393;-40
2021/03/28 06:51:45;;;;;;;45.33;26.90;;;;;;;9.32;51.21;100216.89;1725883;83;21620;-40
2021/03/28 06:55:09;;;;;;;45.33;27.05;;;;;;;9.50;50.55;100218.89;1713193;81;21161;-41
2021/03/28 06:58:06;;;;;;;45.38;26.42;;;;;;;9.64;50.41;100222.11;1699775;83;21198;-40
2021/03/28 07:01:12;;;;;;;41.83;24.60;;;;;;;9.77;49.42;100223.77;1698509;84;21307;-40
2021/03/28 07:04:15;;;;;;;48.50;28.52;;;;;;;9.85;48.61;100222.89;1727263;79;23528;-40
2021/03/28 07:07:15;;;;;;;43.23;26.70;;;;;;;9.98;47.82;100221.00;1722198;82;21110;-40
2021/03/28 07:09:59;;;;;;;45.33;27.70;;;;;;;10.10;47.80;100217.55;1734146;81;21048;-40
2021/03/28 07:13:16;;;;;;;43.40;28.00;;;;;;;10.21;47.83;100216.83;1752587;81;21023;-42
2021/03/28 07:16:07;;;;;;;44.15;26.90;;;;;;;10.32;47.14;100207.11;1722518;82;21156;-42
2021/03/28 07:19:03;;;;;;;44.80;26.77;;;;;;;10.41;47.12;100213.78;1719172;81;21200;-41
2021/03/28 07:22:03;;;;;;;42.23;26.30;;;;;;;10.52;47.29;100214.13;1697125;83;21612;-41
2021/03/28 07:25:12;;;;;;;39.15;23.80;;;;;;;10.64;47.35;100217.66;1703290;83;21589;-41
2021/03/28 07:28:12;;;;;;;42.13;24.85;;;;;;;10.79;46.78;100211.56;1702970;80;21159;-40
2021/03/28 07:30:54;;;;;;;35.08;23.83;;;;;;;10.95;46.31;100206.22;1772998;80;21167;-41
2021/03/28 07:34:07;;;;;;;39.38;24.30;;;;;;;11.09;45.98;100204.50;1716897;80;21202;-41
2021/03/28 07:37:00;;;;;;;40.78;25.00;;;;;;;11.25;45.01;100205.38;1740830;82;21139;-41
2021/03/28 07:40:18;;;;;;;38.08;25.02;;;;;;;11.42;45.18;100211.91;1789044;78;21160;-41
2021/03/28 07:42:55;;;;;;;34.48;22.73;;;;;;;11.55;45.13;100202.58;1821996;78;21145;-41
2021/03/28 07:46:03;;;;;;;38.13;22.35;;;;;;;11.74;45.17;100200.61;1778376;78;21194;-41
2021/03/28 07:49:11;;;;;;;36.80;23.45;;;;;;;11.93;45.27;100196.66;1764172;78;21422;-41
2021/03/28 07:52:00;;;;;;;37.50;22.32;;;;;;;12.19;44.00;100197.55;1789302;78;21157;-42
2021/03/28 07:54:56;;;;;;;33.18;22.10;;;;;;;12.45;43.63;100196.44;1791034;78;21059;-41
2021/03/28 07:58:17;;;;;;;32.45;21.97;;;;;;;12.74;42.96;100184.88;1763308;81;21629;-42
2021/03/28 08:01:17;;;;;;;31.55;20.08;;;;;;;12.99;40.93;100191.68;1758710;81;21582;-41
2021/03/28 08:04:15;;;;;;;31.23;19.17;;;;;;;13.17;40.28;100194.24;1773161;79;21833;-41
2021/03/28 08:07:06;;;;;;;29.57;20.25;;;;;;;13.35;40.08;100184.54;1784613;78;21130;-42
2021/03/28 08:09:59;;;;;;;28.42;18.32;;;;;;;13.49;39.61;100188.91;1784586;78;20993;-41
2021/03/28 08:12:59;;;;;;;27.15;19.32;;;;;;;13.64;39.30;100190.56;1789792;78;21119;-41
2021/03/28 08:16:14;;;;;;;31.35;20.05;;;;;;;13.78;38.86;100183.45;1776978;78;21123;-41
2021/03/28 08:19:39;;;;;;;28.40;19.62;;;;;;;13.93;38.68;100182.56;1783412;79;21192;-42
2021/03/28 08:22:59;;;;;;;26.23;18.25;;;;;;;14.07;39.04;100180.66;1779228;80;20964;-42
2021/03/28 08:25:48;;;;;;;26.62;17.60;;;;;;;14.29;37.95;100178.51;1769104;80;21032;-41
2021/03/28 08:28:51;;;;;;;24.25;16.80;;;;;;;14.53;36.93;100181.46;1772944;78;21185;-41
2021/03/28 08:32:02;;;;;;;26.33;18.17;;;;;;;14.64;36.66;100178.91;1806362;78;22491;-41
2021/03/28 08:35:07;;;;;;;27.05;17.05;;;;;;;14.62;37.37;100168.95;1775975;80;21139;-40
2021/03/28 08:38:09;;;;;;;22.40;15.63;;;;;;;14.71;35.41;100170.27;1777469;79;21352;-41
2021/03/28 08:41:21;;;;;;;25.23;15.30;;;;;;;14.80;35.94;100176.83;1795830;79;21004;-41
2021/03/28 08:44:09;;;;;;;21.30;15.70;;;;;;;14.99;34.11;100182.17;1796608;79;21627;-41
2021/03/28 08:46:54;;;;;;;22.93;13.83;;;;;;;15.00;34.31;100170.09;1795230;79;21133;-41
2021/03/28 08:50:00;;;;;;;23.42;16.45;;;;;;;15.05;33.63;100168.98;1774974;80;21016;-41
2021/03/28 08:52:40;;;;;;;22.52;15.43;;;;;;;15.09;33.88;100173.92;1791110;79;21415;-41
2021/03/28 08:55:30;;;;;;;22.13;15.30;;;;;;;15.15;34.46;100173.20;1725642;82;21021;-40
2021/03/28 08:58:23;;;;;;;22.73;15.48;;;;;;;15.37;33.64;100174.86;1727741;82;21160;-41
2021/03/28 09:00:59;;;;;;;20.57;14.95;;;;;;;15.58;33.74;100168.33;1753976;79;21193;-41
2021/03/28 09:03:58;;;;;;;20.08;15.50;;;;;;;15.74;32.49;100161.25;1751181;81;21169;-40
2021/03/28 09:06:51;;;;;;;23.35;16.10;;;;;;;15.78;32.97;100168.94;1739945;81;21645;-40
2021/03/28 09:09:49;;;;;;;19.67;15.15;;;;;;;15.79;33.19;100165.80;1765966;81;21612;-41
2021/03/28 09:12:54;;;;;;;20.02;15.20;;;;;;;15.86;32.94;100167.27;1757718;80;21632;-41
2021/03/28 09:15:44;;;;;;;21.65;15.25;;;;;;;15.91;33.00;100158.72;1720750;82;21000;-41
2021/03/28 09:18:45;;;;;;;19.95;14.63;;;;;;;16.07;33.88;100160.62;1717969;80;21123;-41
2021/03/28 09:21:28;;;;;;;21.73;15.18;;;;;;;16.24;32.64;100164.69;1734309;82;21340;-41
2021/03/28 09:24:31;;;;;;;22.58;15.80;;;;;;;16.31;32.45;100157.14;1729101;82;20996;-41
2021/03/28 09:27:31;;;;;;;20.75;15.08;;;;;;;16.49;31.86;100168.42;1728600;82;21131;-41
2021/03/28 09:30:40;;;;;;;20.57;15.23;;;;;;;16.56;31.67;100157.30;1721686;82;21186;-41
2021/03/28 09:33:38;;;;;;;23.47;15.15;;;;;;;16.63;31.87;100155.45;1786048;79;21079;-41
2021/03/28 09:36:27;;;;;;;20.02;14.98;;;;;;;16.75;31.75;100148.28;1784185;79;21201;-41
2021/03/28 09:39:08;;;;;;;22.70;15.68;;;;;;;16.97;31.33;100158.01;1779762;79;21048;-41
2021/03/28 09:42:33;;;;;;;19.62;14.58;;;;;;;17.05;31.03;100141.80;1790420;79;21126;-41
2021/03/28 09:45:49;;;;;;;21.97;16.05;;;;;;;17.13;31.00;100153.02;1793064;79;21664;-41
2021/03/28 09:48:58;;;;;;;18.42;14.45;;;;;;;17.20;30.65;100137.97;1786163;79;21179;-41
2021/03/28 09:51:55;;;;;;;19.98;14.55;;;;;;;17.33;30.84;100135.11;1774307;79;21360;-41
2021/03/28 09:55:04;;;;;;;20.10;14.83;;;;;;;17.46;31.29;100132.21;1789098;79;21597;-41
2021/03/28 09:57:43;;;;;;;22.70;14.70;;;;;;;17.53;31.05;100131.42;1773262;79;21170;-41
2021/03/28 10:00:42;;;;;;;20.30;14.43;;;;;;;17.52;30.49;100129.88;1787498;79;21920;-41
2021/03/28 10:03:31;;;;;;;19.62;14.93;;;;;;;17.50;30.92;100123.98;1794649;79;21139;-41
2021/03/28 10:06:04;;;;;;;22.87;15.23;;;;;;;17.59;30.80;100125.22;1771676;79;21432;-41
2021/03/28 10:08:46;;;;;;;19.85;14.98;;;;;;;17.67;29.86;100117.20;1855058;76;22885;-41
2021/03/28 10:11:45;;;;;;;19.00;14.53;;;;;;;17.66;30.37;100118.40;1820109;77;21051;-41
2021/03/28 10:14:47;;;;;;;22.65;15.00;;;;;;;17.74;30.14;100115.06;1835460;77;25572;-41
2021/03/28 10:18:10;;;;;;;22.42;15.53;;;;;;;17.68;30.53;100112.50;1833664;77;21419;-41
2021/03/28 10:21:03;;;;;;;22.70;16.73;;;;;;;17.61;30.20;100103.70;1840560;77;20960;-41
2021/03/28 10:23:51;;;;;;;21.00;14.85;;;;;;;17.37;30.77;100103.80;1774083;80;21288;-41
2021/03/28 10:27:07;;;;;;;20.17;14.85;;;;;;;17.22;31.26;100121.94;1802094;78;22056;-41
2021/03/28 10:29:49;;;;;;;20.88;14.38;;;;;;;17.11;31.15;100112.88;1766077;80;21199;-41
2021/03/28 10:33:03;;;;;;;21.70;15.67;;;;;;;17.08;31.68;100104.07;1804884;77;38344;-41
2021/03/28 10:35:46;;;;;;;20.70;15.78;;;;;;;17.46;30.86;100107.53;1801958;79;21332;-41
2021/03/28 10:38:38;;;;;;;22.52;16.97;;;;;;;17.59;30.61;100110.72;1794769;79;22169;-41
2021/03/28 10:41:28;;;;;;;23.55;15.85;;;;;;;17.50;30.88;100104.80;1801037;79;21684;-41
2021/03/28 10:44:11;;;;;;;20.97;15.03;;;;;;;17.45;31.47;100100.48;1805850;78;21624;-42
2021/03/28 10:47:04;;;;;;;21.27;15.08;;;;;;;17.44;31.34;100103.59;1812096;79;20941;-42
2021/03/28 10:50:04;;;;;;;21.65;16.32;;;;;;;17.35;31.83;100096.53;1774413;79;21751;-42
2021/03/28 10:53:14;;;;;;;19.32;14.55;;;;;;;17.41;31.67;100101.06;1743364;79;21203;-42
2021/03/28 10:56:11;;;;;;;21.20;14.87;;;;;;;17.47;31.38;100095.41;1777848;79;21966;-42
2021/03/28 10:59:17;;;;;;;21.82;15.50;;;;;;;17.52;31.57;100095.61;1774531;80;21059;-42
2021/03/28 11:02:26;;;;;;;22.98;16.07;;;;;;;17.39;31.45;100100.65;1748397;82;21575;-42
2021/03/28 11:05:29;;;;;;;23.42;17.12;;;;;;;17.15;31.84;100099.97;1772928;80;21223;-42
2021/03/28 11:08:39;;;;;;;24.63;17.07;;;;;;;16.93;31.76;100097.73;1734942;81;21661;-42
2021/03/28 11:11:50;;;;;;;21.82;15.78;;;;;;;16.72;32.02;100092.92;1736721;81;21051;-42
2021/03/28 11:14:56;;;;;;;20.10;15.75;;;;;;;16.67;32.44;100089.76;1736289;81;21153;-42
2021/03/28 11:17:45;;;;;;;22.73;16.48;;;;;;;16.87;32.51;100082.25;1721218;81;21652;-41
2021/03/28 11:20:42;;;;;;;23.77;17.32;;;;;;;17.27;31.75;100079.88;1763167;80;21147;-41
2021/03/28 11:23:24;;;;;;;22.10;16.45;;;;;;;17.60;31.42;100069.22;1752089;80;21291;-42
2021/03/28 11:26:16;;;;;;;21.12;14.80;;;;;;;17.93;31.09;100081.00;1746265;80;21229;-41
2021/03/28 11:29:31;;;;;;;21.12;15.55;;;;;;;18.26;30.66;100068.25;1741276;81;21159;-41
2021/03/28 11:32:18;;;;;;;20.70;16.37;;;;;;;18.57;30.26;100073.53;1737048;81;21128;-41
2021/03/28 11:35:16;;;;;;;19.67;14.68;;;;;;;18.86;29.70;100067.37;1749199;81;21173;-42
2021/03/28 11:38:12;;;;;;;18.02;14.38;;;;;;;19.04;29.82;100063.38;1739357;81;21430;-41
2021/03/28 11:40:40;;;;;;;25.23;18.40;;;;;;;19.32;29.36;100057.53;1786236;79;21178;-41
2021/03/28 11:43:14;;;;;;;23.87;15.98;;;;;;;19.48;28.58;100062.00;1810570;79;21402;-41
2021/03/28 11:45:48;;;;;;;23.83;16.60;;;;;;;19.48;28.67;100062.00;1778411;79;21403;-41
2021/03/28 11:48:39;;;;;;;24.37;17.27;;;;;;;19.50;29.14;100063.17;1800930;79;21585;-41
2021/03/28 11:51:40;;;;;;;23.47;17.23;;;;;;;19.53;29.00;100071.20;1771812;79;22351;-41
2021/03/28 11:54:16;;;;;;;24.18;18.60;;;;;;;19.40;28.75;100065.95;1787503;79;21186;-41
2021/03/28 11:57:08;;;;;;;26.27;18.77;;;;;;;19.23;29.24;100055.81;1783167;79;21012;-41
2021/03/28 11:59:49;;;;;;;25.02;17.50;;;;;;;19.13;29.50;100054.69;1785950;79;21541;-41
2021/03/28 12:02:24;;;;;;;24.52;17.67;;;;;;;18.94;29.58;100056.54;1777726;79;21143;-41
2021/03/28 12:05:04;;;;;;;24.72;17.65;;;;;;;18.66;30.16;100056.84;1790645;79;21183;-42
2021/03/28 12:07:44;;;;;;;23.95;17.52;;;;;;;18.47;30.23;100049.59;1741652;81;21040;-42
2021/03/28 12:10:32;;;;;;;24.27;18.15;;;;;;;18.41;30.56;100042.93;1695275;84;21653;-42
2021/03/28 12:13:35;;;;;;;28.12;18.85;;;;;;;18.63;30.75;100045.28;1714272;83;21190;-41
2021/03/28 12:16:06;;;;;;;27.75;20.08;;;;;;;18.87;30.00;100038.72;1726176;82;20925;-41
2021/03/28 12:18:46;;;;;;;28.57;18.82;;;;;;;18.80;30.96;100037.36;1743837;82;21417;-42
2021/03/28 12:21:26;;;;;;;;;;;;;;;18.61;31.18;100031.73;1745255;82;21142;-42
2021/03/28 12:23:59;;;;;;;27.75;19.45;;;;;;;18.32;31.37;100032.37;1742653;82;20188;-41
2021/03/28 12:26:41;;;;;;;27.40;19.65;;;;;;;17.86;32.42;100031.05;1743484;82;21187;-41
2021/03/28 12:29:30;;;;;;;29.75;20.82;;;;;;;17.63;32.65;100030.04;1744606;82;21040;-42
2021/03/28 12:31:58;;;;;;;30.08;20.85;;;;;;;17.35;32.61;100026.64;1744521;81;21582;-41
2021/03/28 12:34:31;;;;;;;32.58;21.48;;;;;;;17.07;33.32;100027.16;1728441;82;21621;-41
2021/03/28 12:37:12;;;;;;;31.60;23.20;;;;;;;16.83;33.73;100025.89;1714905;82;21168;-41
2021/03/28 12:39:48;;;;;;;31.52;22.93;;;;;;;16.59;34.03;100028.72;1728176;82;21158;-42
2021/03/28 12:42:36;;;;;;;31.68;22.07;;;;;;;16.35;35.44;100026.59;1732006;82;21622;-41
2021/03/28 12:45:13;;;;;;;29.77;19.70;;;;;;;16.15;35.70;100023.92;1742447;82;21312;-42
2021/03/28 12:47:58;;;;;;;37.20;22.50;;;;;;;16.04;36.99;100021.10;1743723;82;20957;-43
2021/03/28 12:50:36;;;;;;;34.15;21.35;;;;;;;15.99;37.78;100017.35;1743689;82;21625;-42
2021/03/28 12:53:14;;;;;;;26.27;18.95;;;;;;;15.98;37.11;100021.24;1742700;82;21162;-43
2021/03/28 12:55:50;;;;;;;30.27;19.50;;;;;;;15.96;37.11;100013.44;1731088;82;21171;-41
2021/03/28 12:58:40;;;;;;;31.35;20.65;;;;;;;15.97;37.39;100026.53;1723406;82;21278;-41
2021/03/28 13:01:32;;;;;;;32.05;20.30;;;;;;;15.96;36.40;100017.54;1716318;82;21575;-41
2021/03/28 13:04:19;;;;;;;31.82;19.57;;;;;;;15.96;36.13;100022.22;1723741;81;21165;-41
2021/03/28 13:06:49;;;;;;;35.58;22.52;;;;;;;15.93;36.57;100014.76;1725466;82;21203;-41
2021/03/28 13:09:29;;;;;;;35.20;23.38;;;;;;;15.95;36.83;100016.55;1733021;82;21087;-41
2021/03/28 13:12:12;;;;;;;33.18;23.35;;;;;;;15.92;37.17;100018.10;1723214;80;21032;-41
2021/03/28 13:14:50;;;;;;;36.10;24.27;;;;;;;15.82;37.69;100009.81;1746985;81;21159;-41
2021/03/28 13:17:31;;;;;;;37.73;25.62;;;;;;;15.72;37.89;100007.77;1725447;82;21037;-40
2021/03/28 13:20:23;;;;;;;39.55;26.00;;;;;;;15.62;37.90;100008.67;1736032;82;21156;-42